N172SP KSAN-
Flight info
| Callsign | N172SP |
|---|---|
| Flight time | N/A |
| Altitude | VFR |
| Route | N |
| Aircraft | C172/L-VGD/C |
Departure
| Time | 2026-05-05 06:27 |
|---|---|
| Airport | San Diego International Airport (KSAN) |
Arrival
| Time | N/A |
|---|---|
| Airport | - |
| Time | Latitude | Longitude | Altitude | Speed | Heading |
|---|---|---|---|---|---|
| 2026-05-05 06:19 | 32.73390 | -117.17920 | 19 ft | 0 kts | 209° |
| 2026-05-05 06:22 | 32.73379 | -117.17927 | 20 ft | 9 kts | 205° |
| 2026-05-05 06:22 | 32.73337 | -117.17956 | 19 ft | 1 kts | 206° |
| 2026-05-05 06:23 | 32.73316 | -117.17964 | 18 ft | 5 kts | 180° |
| 2026-05-05 06:23 | 32.73283 | -117.17882 | 19 ft | 11 kts | 107° |
| 2026-05-05 06:23 | 32.73262 | -117.17795 | 20 ft | 9 kts | 107° |
| 2026-05-05 06:23 | 32.73261 | -117.17790 | 20 ft | 0 kts | 106° |
| 2026-05-05 06:24 | 32.73246 | -117.17730 | 21 ft | 9 kts | 107° |
| 2026-05-05 06:24 | 32.73219 | -117.17681 | 22 ft | 3 kts | 147° |
| 2026-05-05 06:24 | 32.73213 | -117.17676 | 22 ft | 3 kts | 147° |
| 2026-05-05 06:24 | 32.73145 | -117.17621 | 21 ft | 13 kts | 117° |
| 2026-05-05 06:25 | 32.73105 | -117.17563 | 22 ft | 5 kts | 146° |
| 2026-05-05 06:25 | 32.73099 | -117.17559 | 22 ft | 0 kts | 145° |
| 2026-05-05 06:26 | 32.73057 | -117.17527 | 21 ft | 11 kts | 157° |
| 2026-05-05 06:26 | 32.73013 | -117.17555 | 21 ft | 4 kts | 278° |
| 2026-05-05 06:26 | 32.73077 | -117.17815 | 20 ft | 56 kts | 286° |
| 2026-05-05 06:26 | 32.73211 | -117.18350 | 69 ft | 77 kts | 288° |
| 2026-05-05 06:27 | 32.73594 | -117.18837 | 204 ft | 87 kts | 326° |
| 2026-05-05 06:27 | 32.74612 | -117.19573 | 621 ft | 83 kts | 323° |
| 2026-05-05 06:27 | 32.75091 | -117.19961 | 786 ft | 88 kts | 322° |
| 2026-05-05 06:28 | 32.75599 | -117.20377 | 970 ft | 87 kts | 322° |
| 2026-05-05 06:28 | 32.76078 | -117.20771 | 1171 ft | 86 kts | 320° |
| 2026-05-05 06:28 | 32.76555 | -117.21177 | 1383 ft | 83 kts | 320° |
| 2026-05-05 06:28 | 32.77000 | -117.21586 | 1583 ft | 82 kts | 324° |
| 2026-05-05 06:29 | 32.77472 | -117.21952 | 1809 ft | 76 kts | 319° |
| 2026-05-05 06:29 | 32.77900 | -117.22367 | 1976 ft | 79 kts | 313° |
| 2026-05-05 06:29 | 32.78285 | -117.22871 | 2096 ft | 86 kts | 302° |
| 2026-05-05 06:29 | 32.78502 | -117.23470 | 2327 ft | 79 kts | 272° |
| 2026-05-05 06:30 | 32.78571 | -117.24217 | 2385 ft | 90 kts | 271° |
| 2026-05-05 06:30 | 32.78567 | -117.24963 | 2545 ft | 91 kts | 272° |
| 2026-05-05 06:30 | 32.78752 | -117.25756 | 2409 ft | 92 kts | 288° |
| 2026-05-05 06:30 | 32.78982 | -117.26441 | 2493 ft | 89 kts | 292° |
| 2026-05-05 06:31 | 32.79269 | -117.27120 | 2479 ft | 94 kts | 296° |
| 2026-05-05 06:31 | 32.79609 | -117.27800 | 2432 ft | 100 kts | 300° |
| 2026-05-05 06:31 | 32.80017 | -117.28480 | 2434 ft | 98 kts | 307° |
| 2026-05-05 06:31 | 32.80456 | -117.29071 | 2470 ft | 97 kts | 313° |
| 2026-05-05 06:32 | 32.80956 | -117.29639 | 2428 ft | 101 kts | 314° |
| 2026-05-05 06:32 | 32.81456 | -117.30225 | 2391 ft | 102 kts | 298° |
| 2026-05-05 06:32 | 32.81813 | -117.30913 | 2469 ft | 95 kts | 301° |
| 2026-05-05 06:32 | 32.82192 | -117.31616 | 2419 ft | 110 kts | 298° |
| 2026-05-05 06:33 | 32.82596 | -117.32377 | 2472 ft | 110 kts | 301° |
| 2026-05-05 06:33 | 32.83033 | -117.33143 | 2475 ft | 114 kts | 302° |
| 2026-05-05 06:33 | 32.83520 | -117.33870 | 2529 ft | 111 kts | 311° |
| 2026-05-05 06:33 | 32.84115 | -117.34515 | 2458 ft | 118 kts | 319° |
| 2026-05-05 06:34 | 32.84726 | -117.35144 | 2517 ft | 110 kts | 304° |
| 2026-05-05 06:34 | 32.84845 | -117.36023 | 2422 ft | 116 kts | 255° |
| 2026-05-05 06:34 | 32.84557 | -117.36859 | 2416 ft | 104 kts | 245° |
| 2026-05-05 06:34 | 32.84204 | -117.37522 | 2456 ft | 94 kts | 223° |
| 2026-05-05 06:35 | 32.83591 | -117.37770 | 2457 ft | 91 kts | 183° |
| 2026-05-05 06:35 | 32.82992 | -117.37456 | 2414 ft | 97 kts | 143° |
| 2026-05-05 06:35 | 32.82464 | -117.36906 | 2422 ft | 103 kts | 140° |
| 2026-05-05 06:35 | 32.81984 | -117.36273 | 2478 ft | 98 kts | 131° |
| 2026-05-05 06:36 | 32.81542 | -117.35636 | 2503 ft | 99 kts | 131° |
| 2026-05-05 06:36 | 32.81079 | -117.34981 | 2488 ft | 103 kts | 131° |
| 2026-05-05 06:36 | 32.80620 | -117.34295 | 2480 ft | 105 kts | 129° |
| 2026-05-05 06:36 | 32.80179 | -117.33588 | 2411 ft | 113 kts | 127° |
| 2026-05-05 06:37 | 32.79724 | -117.32832 | 2428 ft | 107 kts | 125° |
| 2026-05-05 06:37 | 32.79299 | -117.32090 | 2354 ft | 113 kts | 127° |
| 2026-05-05 06:37 | 32.78825 | -117.31314 | 2273 ft | 114 kts | 125° |
| 2026-05-05 06:37 | 32.78434 | -117.30544 | 2351 ft | 106 kts | 121° |